Time;durP1;ratioP1;P1;durP2;ratioP2;P2;SDS_P1;SDS_P2;PMS_P1;PMS_P2;Temp;Humidity;BMP_temperature;BMP_pressure;BME280_temperature;BME280_humidity;BME280_pressure;Samples;Min_cycle;Max_cycle;Signal;HPM_P1;HPM_P2
2022/11/04 00:02:32;;;;;;;;;;;;;;;12.05;100.00;99619.31;4464843;32;33869;-77
2022/11/04 00:05:20;;;;;;;;;;;;;;;12.19;100.00;99610.91;4453304;32;34470;-76
2022/11/04 00:08:25;;;;;;;;;;;;;;;12.19;100.00;99602.66;4464720;32;33855;-77
2022/11/04 00:14:16;;;;;;;;;;;;;;;12.25;100.00;99590.37;4452470;32;35072;-77
2022/11/04 00:17:18;;;;;;;;;;;;;;;12.39;100.00;99588.28;4453327;32;34491;-77
2022/11/04 00:29:19;;;;;;;;;;;;;;;11.68;100.00;99556.38;4446625;32;34932;-77
2022/11/04 00:35:16;;;;;;;;;;;;;;;11.91;100.00;99565.31;4449673;32;35732;-77
2022/11/04 00:38:02;;;;;;;;;;;;;;;12.25;100.00;99560.16;4448071;32;34123;-77
2022/11/04 00:40:48;;;;;;;;;;;;;;;12.31;100.00;99564.38;4450731;32;35757;-77
2022/11/04 00:43:35;;;;;;;;;;;;;;;12.28;100.00;99559.53;4447909;32;36257;-76
2022/11/04 00:46:23;;;;;;;;;;;;;;;12.36;100.00;99551.28;4448663;32;34979;-77
2022/11/04 00:49:10;;;;;;;;;;;;;;;12.09;100.00;99538.66;4448252;32;34070;-77
2022/11/04 00:51:56;;;;;;;;;;;;;;;11.65;100.00;99531.53;4437917;32;34838;-77
2022/11/04 00:54:42;;;;;;;;;;;;;;;12.23;100.00;99521.22;4448932;32;36144;-77
2022/11/04 00:57:28;;;;;;;;;;;;;;;11.78;100.00;99538.81;4449546;32;34611;-76
2022/11/04 01:00:15;;;;;;;;;;;;;;;11.40;100.00;99535.81;4448416;32;34243;-77
2022/11/04 01:03:01;;;;;;;;;;;;;;;11.78;100.00;99541.56;4448688;32;35151;-77
2022/11/04 01:05:48;;;;;;;;;;;;;;;11.91;100.00;99539.81;4449678;32;34869;-77
2022/11/04 01:08:34;;;;;;;;;;;;;;;12.36;100.00;99539.47;4448839;32;35096;-77
2022/11/04 01:11:21;;;;;;;;;;;;;;;12.28;100.00;99532.84;4448232;32;34331;-77
2022/11/04 01:14:08;;;;;;;;;;;;;;;11.58;100.00;99531.97;4449419;32;36247;-77
2022/11/04 01:16:55;;;;;;;;;;;;;;;12.34;100.00;99541.72;4448322;32;35299;-77
2022/11/04 01:19:40;;;;;;;;;;;;;;;12.07;100.00;99531.91;4449658;32;34980;-77
2022/11/04 01:22:26;;;;;;;;;;;;;;;12.02;100.00;99530.13;4449497;32;35927;-77
2022/11/04 01:25:13;;;;;;;;;;;;;;;12.23;100.00;99523.97;4457658;32;35754;-77
2022/11/04 01:28:00;;;;;;;;;;;;;;;12.31;100.00;99514.91;4457171;32;35858;-77
2022/11/04 01:30:46;;;;;;;;;;;;;;;11.99;100.00;99511.56;4456372;32;35004;-77
2022/11/04 01:33:33;;;;;;;;;;;;;;;12.08;100.00;99515.09;4446582;32;34003;-77
2022/11/04 01:36:19;;;;;;;;;;;;;;;12.24;100.00;99517.34;4442652;32;35892;-77
2022/11/04 01:39:05;;;;;;;;;;;;;;;12.43;100.00;99515.03;4456157;32;35302;-77
2022/11/04 01:41:52;;;;;;;;;;;;;;;12.01;100.00;99497.47;4454463;32;35519;-77
2022/11/04 01:44:45;;;;;;;;;;;;;;;12.44;100.00;99491.94;4459391;32;34861;-77
2022/11/04 01:47:35;;;;;;;;;;;;;;;12.41;100.00;99473.38;4458729;32;34945;-77
2022/11/04 01:50:23;;;;;;;;;;;;;;;12.30;100.00;99463.88;4459765;32;35310;-76
2022/11/04 01:53:12;;;;;;;;;;;;;;;12.11;100.00;99462.25;4444797;32;35085;-77
2022/11/04 01:55:59;;;;;;;;;;;;;;;12.10;100.00;99471.66;4460261;32;34105;-77
2022/11/04 01:58:46;;;;;;;;;;;;;;;12.28;100.00;99463.38;4440169;32;34942;-77
2022/11/04 02:01:32;;;;;;;;;;;;;;;12.63;100.00;99457.78;4441615;32;35856;-77
2022/11/04 02:04:25;;;;;;;;;;;;;;;12.17;100.00;99451.13;4458338;32;35049;-77
2022/11/04 02:07:13;;;;;;;;;;;;;;;12.61;100.00;99452.63;4443903;32;34185;-77
2022/11/04 02:10:01;;;;;;;;;;;;;;;12.20;100.00;99442.22;4449074;32;34912;-77
2022/11/04 02:12:48;;;;;;;;;;;;;;;12.59;100.00;99446.63;4446356;32;35633;-77
2022/11/04 02:15:46;;;;;;;;;;;;;;;12.44;100.00;99444.44;4455421;32;34943;-77
2022/11/04 02:18:51;;;;;;;;;;;;;;;12.53;100.00;99434.22;4455999;32;34841;-77
2022/11/04 02:21:40;;;;;;;;;;;;;;;12.43;100.00;99429.87;4455216;32;34860;-77
2022/11/04 02:24:40;;;;;;;;;;;;;;;12.42;100.00;99431.00;4450944;32;34951;-77
2022/11/04 02:27:31;;;;;;;;;;;;;;;12.15;100.00;99422.03;4449519;32;34874;-77
2022/11/04 02:30:18;;;;;;;;;;;;;;;12.32;100.00;99412.13;4452787;32;34667;-77
2022/11/04 02:33:24;;;;;;;;;;;;;;;12.42;100.00;99414.53;4451974;32;34381;-77
2022/11/04 02:36:15;;;;;;;;;;;;;;;12.19;100.00;99421.37;4465062;32;34843;-77
2022/11/04 02:39:17;;;;;;;;;;;;;;;12.27;100.00;99407.63;4463437;32;34973;-77
2022/11/04 02:42:08;;;;;;;;;;;;;;;12.17;100.00;99387.94;4465010;32;33770;-77
2022/11/04 02:44:57;;;;;;;;;;;;;;;12.10;100.00;99392.00;4441913;32;34857;-77
2022/11/04 02:47:54;;;;;;;;;;;;;;;12.16;100.00;99398.13;4464430;32;35883;-76
2022/11/04 02:50:42;;;;;;;;;;;;;;;11.81;100.00;99389.09;4440650;32;34868;-77
2022/11/04 02:53:30;;;;;;;;;;;;;;;12.11;100.00;99390.84;4464365;32;35166;-77
2022/11/04 02:56:16;;;;;;;;;;;;;;;12.12;100.00;99392.50;4452931;32;34684;-77
2022/11/04 02:59:23;;;;;;;;;;;;;;;11.79;100.00;99402.38;4452675;32;35387;-77
2022/11/04 03:02:17;;;;;;;;;;;;;;;11.75;100.00;99407.69;4464913;32;35189;-77
2022/11/04 03:05:06;;;;;;;;;;;;;;;12.26;100.00;99407.94;4452369;32;34332;-77
2022/11/04 03:07:52;;;;;;;;;;;;;;;12.36;100.00;99396.63;4464144;32;34888;-77
2022/11/04 03:10:41;;;;;;;;;;;;;;;12.15;100.00;99386.34;4446029;32;35063;-77
2022/11/04 03:13:33;;;;;;;;;;;;;;;12.47;100.00;99375.09;4453917;32;34592;-76
2022/11/04 03:16:22;;;;;;;;;;;;;;;12.27;100.00;99362.88;4464689;32;33636;-77
2022/11/04 03:19:13;;;;;;;;;;;;;;;12.09;100.00;99348.38;4451324;32;34984;-77
2022/11/04 03:22:04;;;;;;;;;;;;;;;12.33;100.00;99348.62;4451871;32;35182;-77
2022/11/04 03:24:51;;;;;;;;;;;;;;;12.05;100.00;99341.94;4463432;32;35768;-76
2022/11/04 03:28:09;;;;;;;;;;;;;;;11.56;100.00;99331.19;4436415;32;34010;-77
2022/11/04 03:30:57;;;;;;;;;;;;;;;11.89;100.00;99333.41;4417430;32;34930;-77
2022/11/04 03:33:49;;;;;;;;;;;;;;;11.96;100.00;99325.50;4448016;32;36012;-77
2022/11/04 03:36:34;;;;;;;;;;;;;;;12.07;100.00;99324.00;4446203;32;35737;-76
2022/11/04 03:39:20;;;;;;;;;;;;;;;12.09;100.00;99323.66;4448046;32;34998;-77
2022/11/04 03:42:18;;;;;;;;;;;;;;;11.65;100.00;99326.50;4448351;32;35814;-77
2022/11/04 03:45:06;;;;;;;;;;;;;;;11.66;100.00;99336.34;4428146;32;36195;-77
2022/11/04 03:47:52;;;;;;;;;;;;;;;11.98;100.00;99325.97;4444051;32;35490;-77
2022/11/04 03:50:40;;;;;;;;;;;;;;;11.89;100.00;99334.22;4444080;32;33678;-76
2022/11/04 03:53:26;;;;;;;;;;;;;;;11.82;100.00;99322.13;4445619;32;34878;-77
2022/11/04 03:56:16;;;;;;;;;;;;;;;11.79;100.00;99314.53;4448215;32;34703;-77
2022/11/04 03:59:11;;;;;;;;;;;;;;;12.20;100.00;99304.88;4448059;32;35127;-77
2022/11/04 04:02:08;;;;;;;;;;;;;;;12.06;100.00;99294.91;4446992;32;34910;-77
2022/11/04 04:04:55;;;;;;;;;;;;;;;11.84;100.00;99278.66;4439122;32;34963;-77
2022/11/04 04:07:43;;;;;;;;;;;;;;;11.78;100.00;99277.22;4447902;32;35198;-77
2022/11/04 04:10:42;;;;;;;;;;;;;;;11.97;100.00;99277.69;4447809;32;35369;-77
2022/11/04 04:13:28;;;;;;;;;;;;;;;12.09;100.00;99272.28;4448002;32;34048;-77
2022/11/04 04:16:17;;;;;;;;;;;;;;;11.90;100.00;99285.63;4450824;32;34453;-77
2022/11/04 04:19:10;;;;;;;;;;;;;;;11.53;100.00;99274.25;4449856;32;35256;-76
2022/11/04 04:22:11;;;;;;;;;;;;;;;12.08;100.00;99270.69;4449587;32;34635;-77
2022/11/04 04:28:03;;;;;;;;;;;;;;;11.79;100.00;99274.16;4457818;32;34549;-77
2022/11/04 04:30:49;;;;;;;;;;;;;;;11.63;100.00;99273.06;4481975;32;36266;-77
2022/11/04 04:33:38;;;;;;;;;;;;;;;11.43;100.00;99282.78;4480769;32;35063;-76
2022/11/04 04:36:23;;;;;;;;;;;;;;;11.70;100.00;99287.13;4469835;32;35010;-77
2022/11/04 04:45:32;;;;;;;;;;;;;;;12.03;100.00;99262.63;4483301;32;34504;-77
2022/11/04 04:48:18;;;;;;;;;;;;;;;11.79;100.00;99256.91;4470682;32;34013;-76
2022/11/04 04:51:06;;;;;;;;;;;;;;;11.44;100.00;99262.44;4467167;31;35770;-76
2022/11/04 04:53:52;;;;;;;;;;;;;;;11.53;100.00;99257.78;4469917;32;36103;-77
2022/11/04 04:56:40;;;;;;;;;;;;;;;11.85;100.00;99259.16;4481425;32;34673;-76
2022/11/04 04:59:27;;;;;;;;;;;;;;;11.67;100.00;99266.63;4470490;32;35148;-78
2022/11/04 05:02:13;;;;;;;;;;;;;;;11.76;100.00;99260.28;4481258;32;35836;-78
2022/11/04 05:05:01;;;;;;;;;;;;;;;11.94;100.00;99259.13;4481796;32;35868;-77
2022/11/04 05:07:48;;;;;;;;;;;;;;;11.61;100.00;99256.13;4480248;31;34892;-78
2022/11/04 05:10:34;;;;;;;;;;;;;;;11.93;100.00;99260.25;4480779;32;34119;-78
2022/11/04 05:13:30;;;;;;;;;;;;;;;11.62;100.00;99266.78;4481180;32;35877;-78
2022/11/04 05:16:16;;;;;;;;;;;;;;;11.39;100.00;99254.41;4467485;32;35276;-78
2022/11/04 05:19:03;;;;;;;;;;;;;;;11.62;100.00;99253.06;4480759;32;34445;-78
2022/11/04 05:21:52;;;;;;;;;;;;;;;11.94;100.00;99259.13;4468352;31;34011;-77
2022/11/04 05:24:48;;;;;;;;;;;;;;;11.81;100.00;99260.94;4480278;32;35005;-77
2022/11/04 05:27:34;;;;;;;;;;;;;;;11.38;100.00;99263.75;4456753;31;35188;-78
2022/11/04 05:30:23;;;;;;;;;;;;;;;10.80;100.00;99258.47;4480599;32;34926;-77
2022/11/04 05:33:10;;;;;;;;;;;;;;;11.34;100.00;99257.31;4480627;32;33617;-79
2022/11/04 05:36:06;;;;;;;;;;;;;;;10.96;100.00;99253.31;4480051;31;34940;-78
2022/11/04 05:38:54;;;;;;;;;;;;;;;10.89;100.00;99249.44;4481724;31;35181;-78
2022/11/04 05:41:41;;;;;;;;;;;;;;;11.20;100.00;99258.28;4467122;31;34925;-78
2022/11/04 05:44:28;;;;;;;;;;;;;;;11.38;100.00;99267.31;4470266;32;33760;-78
2022/11/04 05:47:15;;;;;;;;;;;;;;;11.21;100.00;99276.37;4480973;31;34515;-78
2022/11/04 05:50:03;;;;;;;;;;;;;;;11.67;100.00;99277.59;4469393;31;34005;-78
2022/11/04 05:52:52;;;;;;;;;;;;;;;11.20;100.00;99274.75;4456362;32;35027;-78
2022/11/04 05:55:42;;;;;;;;;;;;;;;11.69;100.00;99271.75;4469690;32;34956;-78
2022/11/04 05:58:29;;;;;;;;;;;;;;;11.55;100.00;99263.72;4468574;32;35768;-79
2022/11/04 06:01:30;;;;;;;;;;;;;;;11.84;100.00;99270.41;4481362;32;35134;-78
2022/11/04 06:04:18;;;;;;;;;;;;;;;10.92;100.00;99270.72;4478735;31;35835;-78
2022/11/04 06:07:04;;;;;;;;;;;;;;;11.50;100.00;99263.91;4480285;31;33992;-79
2022/11/04 06:09:51;;;;;;;;;;;;;;;10.86;100.00;99270.09;4481196;32;35798;-78
2022/11/04 06:12:40;;;;;;;;;;;;;;;10.99;100.00;99265.59;4481630;32;34921;-78
2022/11/04 06:15:30;;;;;;;;;;;;;;;11.19;100.00;99266.88;4423306;31;1764846;-78
2022/11/04 06:18:19;;;;;;;;;;;;;;;10.92;100.00;99262.50;4480419;32;34528;-78
2022/11/04 06:21:12;;;;;;;;;;;;;;;11.07;100.00;99263.94;4479750;32;35875;-78
2022/11/04 06:23:59;;;;;;;;;;;;;;;11.19;100.00;99253.94;4480796;32;35186;-78
2022/11/04 06:26:46;;;;;;;;;;;;;;;10.67;100.00;99262.19;4480481;32;34877;-77
2022/11/04 06:29:32;;;;;;;;;;;;;;;11.06;100.00;99263.16;4479692;31;34199;-78
2022/11/04 06:32:19;;;;;;;;;;;;;;;11.21;100.00;99270.91;4480980;32;35478;-78
2022/11/04 06:35:09;;;;;;;;;;;;;;;10.87;100.00;99273.62;4481518;32;34447;-78
2022/11/04 06:37:58;;;;;;;;;;;;;;;10.90;100.00;99276.53;4478692;31;34931;-78
2022/11/04 06:40:45;;;;;;;;;;;;;;;10.97;100.00;99281.53;4457523;32;34578;-78
2022/11/04 06:43:33;;;;;;;;;;;;;;;10.82;100.00;99282.03;4476715;31;35693;-78
2022/11/04 06:46:36;;;;;;;;;;;;;;;11.17;100.00;99272.66;4468877;32;35222;-78
2022/11/04 06:49:23;;;;;;;;;;;;;;;11.12;100.00;99278.31;4468459;32;35219;-77
2022/11/04 06:52:09;;;;;;;;;;;;;;;10.97;100.00;99271.38;4479270;31;34383;-77
2022/11/04 06:54:57;;;;;;;;;;;;;;;10.89;100.00;99274.12;4467152;32;35578;-78
2022/11/04 06:57:44;;;;;;;;;;;;;;;10.96;100.00;99277.19;4468586;32;35714;-78
2022/11/04 07:00:30;;;;;;;;;;;;;;;10.87;100.00;99281.84;4469056;32;36303;-78
2022/11/04 07:03:20;;;;;;;;;;;;;;;11.26;100.00;99278.13;4454871;32;33466;-76
2022/11/04 07:06:08;;;;;;;;;;;;;;;11.06;100.00;99271.38;4481880;32;34990;-77
2022/11/04 07:08:56;;;;;;;;;;;;;;;11.33;100.00;99272.97;4482301;31;35773;-77
2022/11/04 07:11:43;;;;;;;;;;;;;;;10.45;100.00;99281.47;4470810;32;33917;-77
2022/11/04 07:14:30;;;;;;;;;;;;;;;10.56;100.00;99282.78;4468007;31;34973;-79
2022/11/04 07:17:19;;;;;;;;;;;;;;;10.70;100.00;99288.94;4481829;31;34433;-79
2022/11/04 07:20:06;;;;;;;;;;;;;;;10.64;100.00;99276.50;4472673;31;35634;-79
2022/11/04 07:22:54;;;;;;;;;;;;;;;10.43;100.00;99278.25;4471071;31;34846;-78
2022/11/04 07:25:43;;;;;;;;;;;;;;;10.95;100.00;99272.81;4454710;31;33159;-81
2022/11/04 07:28:34;;;;;;;;;;;;;;;10.87;100.00;99276.37;4450092;32;35772;-81
2022/11/04 07:31:23;;;;;;;;;;;;;;;10.50;100.00;99282.13;4449221;32;35141;-82
2022/11/04 07:34:11;;;;;;;;;;;;;;;10.26;100.00;99284.44;4444813;32;35272;-79
2022/11/04 07:36:59;;;;;;;;;;;;;;;11.13;100.00;99274.44;4448681;32;32423;-79
2022/11/04 07:39:47;;;;;;;;;;;;;;;11.21;100.00;99281.03;4449469;32;34906;-79
2022/11/04 07:42:34;;;;;;;;;;;;;;;11.15;100.00;99277.66;4447982;32;34206;-79
2022/11/04 07:45:24;;;;;;;;;;;;;;;10.82;100.00;99265.59;4447221;32;35415;-79
2022/11/04 07:48:16;;;;;;;;;;;;;;;11.19;100.00;99269.59;4423810;32;34692;-79
2022/11/04 07:51:05;;;;;;;;;;;;;;;11.21;100.00;99279.13;4448871;32;34958;-77
2022/11/04 07:53:54;;;;;;;;;;;;;;;11.12;100.00;99266.53;4447692;32;34921;-75
2022/11/04 07:56:41;;;;;;;;;;;;;;;11.34;100.00;99255.38;4452066;32;36877;-80
2022/11/04 07:59:32;;;;;;;;;;;;;;;10.69;100.00;99262.66;4454607;32;34465;-80
2022/11/04 08:02:21;;;;;;;;;;;;;;;11.24;100.00;99264.75;4453796;32;35163;-79
2022/11/04 08:05:16;;;;;;;;;;;;;;;10.95;100.00;99259.91;4447503;32;35795;-80
2022/11/04 08:08:19;;;;;;;;;;;;;;;10.78;100.00;99251.69;4454137;32;35759;-77
2022/11/04 08:11:08;;;;;;;;;;;;;;;10.73;100.00;99254.59;4455320;32;34938;-77
2022/11/04 08:14:03;;;;;;;;;;;;;;;10.99;100.00;99251.88;4455916;32;33372;-80
2022/11/04 08:16:50;;;;;;;;;;;;;;;11.09;100.00;99246.03;4454312;32;34664;-79
2022/11/04 08:19:36;;;;;;;;;;;;;;;11.11;100.00;99243.78;4461665;32;33916;-80
2022/11/04 08:22:24;;;;;;;;;;;;;;;11.24;100.00;99237.34;4450133;32;34712;-80
2022/11/04 08:25:19;;;;;;;;;;;;;;;10.78;100.00;99246.22;4459199;32;33224;-80
2022/11/04 08:28:07;;;;;;;;;;;;;;;10.53;100.00;99234.94;4467767;31;36784;-82
2022/11/04 08:30:55;;;;;;;;;;;;;;;10.84;100.00;99238.63;4447051;31;33025;-81
2022/11/04 08:33:42;;;;;;;;;;;;;;;11.34;100.00;99232.63;4456384;31;33442;-82
2022/11/04 08:36:30;;;;;;;;;;;;;;;11.15;100.00;99230.25;4464175;31;34539;-80
2022/11/04 08:39:18;;;;;;;;;;;;;;;10.65;100.00;99228.81;4457074;31;35012;-80
2022/11/04 08:42:05;;;;;;;;;;;;;;;10.95;100.00;99237.19;4465809;31;34548;-81
2022/11/04 08:44:52;;;;;;;;;;;;;;;11.39;100.00;99221.50;4468850;31;35216;-80
2022/11/04 08:47:38;;;;;;;;;;;;;;;11.10;100.00;99227.66;4465361;31;35305;-80
2022/11/04 08:50:26;;;;;;;;;;;;;;;11.17;100.00;99228.78;4478688;31;34873;-80
2022/11/04 08:53:15;;;;;;;;;;;;;;;11.08;100.00;99225.25;4466522;31;34499;-80
2022/11/04 08:56:14;;;;;;;;;;;;;;;10.95;100.00;99209.78;4459572;31;34143;-79
2022/11/04 08:59:03;;;;;;;;;;;;;;;11.34;100.00;99210.69;4467367;32;34866;-79
2022/11/04 09:01:50;;;;;;;;;;;;;;;10.73;100.00;99217.06;4466385;31;36543;-79
2022/11/04 09:04:36;;;;;;;;;;;;;;;11.44;100.00;99204.84;4475811;31;33714;-81
2022/11/04 09:07:23;;;;;;;;;;;;;;;11.33;100.00;99198.91;4475704;31;33734;-80
2022/11/04 09:13:14;;;;;;;;;;;;;;;11.48;100.00;99192.91;4467184;31;36793;-81
2022/11/04 09:16:02;;;;;;;;;;;;;;;11.26;100.00;99188.44;4466602;32;35441;-80
2022/11/04 09:18:50;;;;;;;;;;;;;;;11.19;100.00;99196.38;4460597;31;33616;-81
2022/11/04 09:21:42;;;;;;;;;;;;;;;11.33;100.00;99195.38;4462784;31;34840;-79
2022/11/04 09:24:30;;;;;;;;;;;;;;;11.22;100.00;99192.97;4461353;31;34929;-80
2022/11/04 09:27:18;;;;;;;;;;;;;;;11.17;100.00;99193.13;4469460;31;34394;-81
2022/11/04 09:30:10;;;;;;;;;;;;;;;10.95;100.00;99196.06;4465186;31;33820;-80
2022/11/04 09:32:57;;;;;;;;;;;;;;;11.05;100.00;99190.25;4476386;31;35840;-80
2022/11/04 09:35:56;;;;;;;;;;;;;;;11.36;100.00;99186.50;4461033;31;34790;-80
2022/11/04 09:38:43;;;;;;;;;;;;;;;11.28;100.00;99170.87;4473965;31;35407;-80
2022/11/04 09:41:34;;;;;;;;;;;;;;;10.92;100.00;99169.31;4464161;31;34269;-78
2022/11/04 09:44:23;;;;;;;;;;;;;;;11.36;100.00;99176.31;4452783;32;34913;-79
2022/11/04 09:47:10;;;;;;;;;;;;;;;11.11;100.00;99175.25;4476485;31;35701;-81
2022/11/04 09:49:57;;;;;;;;;;;;;;;11.40;100.00;99165.50;4458313;31;34475;-82
2022/11/04 09:52:53;;;;;;;;;;;;;;;11.16;100.00;99147.66;4475459;31;33743;-84
2022/11/04 09:56:00;;;;;;;;;;;;;;;10.86;100.00;99141.25;4466995;32;33471;-83
2022/11/04 09:58:48;;;;;;;;;;;;;;;11.13;100.00;99137.34;4465320;31;36142;-83
2022/11/04 10:01:40;;;;;;;;;;;;;;;10.79;100.00;99119.03;4466685;32;34949;-83
2022/11/04 10:04:46;;;;;;;;;;;;;;;10.71;100.00;99117.91;4466664;32;34047;-82
2022/11/04 10:07:36;;;;;;;;;;;;;;;10.84;100.00;99112.56;4478073;31;34916;-83
2022/11/04 10:10:27;;;;;;;;;;;;;;;11.06;100.00;99106.06;4456306;32;34665;-81
2022/11/04 10:13:35;;;;;;;;;;;;;;;11.08;100.00;99104.63;4478759;31;33913;-82
2022/11/04 10:16:25;;;;;;;;;;;;;;;10.85;100.00;99111.47;4463519;32;32609;-81
2022/11/04 10:19:14;;;;;;;;;;;;;;;10.89;100.00;99113.22;4478916;32;35853;-82
2022/11/04 10:22:03;;;;;;;;;;;;;;;10.91;100.00;99116.44;4480343;32;35837;-81
2022/11/04 10:28:01;;;;;;;;;;;;;;;10.84;100.00;99107.09;4462668;32;34857;-81
2022/11/04 10:30:56;;;;;;;;;;;;;;;10.73;100.00;99103.88;4464157;32;34915;-81
2022/11/04 10:33:48;;;;;;;;;;;;;;;10.72;100.00;99110.50;4452440;32;35170;-81
2022/11/04 10:36:36;;;;;;;;;;;;;;;10.77;100.00;99105.66;4464249;32;35320;-83
2022/11/04 10:39:26;;;;;;;;;;;;;;;10.85;100.00;99103.25;4464514;32;34445;-82
2022/11/04 10:42:15;;;;;;;;;;;;;;;11.12;100.00;99091.06;4462169;32;34664;-82
2022/11/04 10:45:06;;;;;;;;;;;;;;;11.02;100.00;99086.75;4462282;32;33868;-82
2022/11/04 10:47:57;;;;;;;;;;;;;;;11.06;100.00;99076.72;4462934;32;34396;-82
2022/11/04 10:50:51;;;;;;;;;;;;;;;10.96;100.00;99068.88;4462995;32;35271;-83
2022/11/04 10:53:37;;;;;;;;;;;;;;;11.26;100.00;99077.94;4448983;32;34184;-81
2022/11/04 10:56:30;;;;;;;;;;;;;;;10.91;100.00;99085.50;4457675;32;36145;-83
2022/11/04 10:59:46;;;;;;;;;;;;;;;11.17;100.00;99083.47;4461027;32;35185;-82
2022/11/04 11:02:36;;;;;;;;;;;;;;;11.19;100.00;99074.91;4457943;32;34054;-82
2022/11/04 11:05:23;;;;;;;;;;;;;;;11.06;100.00;99075.91;4463276;32;35752;-81
2022/11/04 11:08:14;;;;;;;;;;;;;;;10.78;100.00;99059.88;4460683;32;35191;-81
2022/11/04 11:11:15;;;;;;;;;;;;;;;11.26;100.00;99072.44;4455346;32;34894;-81
2022/11/04 11:14:39;;;;;;;;;;;;;;;11.34;100.00;99077.09;4430557;32;33892;-82
2022/11/04 11:17:42;;;;;;;;;;;;;;;11.19;100.00;99072.97;4403389;32;34842;-80
2022/11/04 11:20:51;;;;;;;;;;;;;;;11.40;100.00;99075.78;4363423;32;35078;-81
2022/11/04 11:23:56;;;;;;;;;;;;;;;11.65;100.00;99076.78;4358125;32;34474;-80
2022/11/04 11:28:04;;;;;;;;;;;;;;;11.48;100.00;99071.37;4318905;33;33669;-81
2022/11/04 11:31:25;;;;;;;;;;;;;;;11.77;100.00;99069.78;4306908;33;34944;-81
2022/11/04 11:35:43;;;;;;;;;;;;;;;11.57;100.00;99063.13;4311127;33;36166;-80
2022/11/04 11:38:31;;;;;;;;;;;;;;;12.36;100.00;99055.94;4475456;31;975001;-81
2022/11/04 11:41:35;;;;;;;;;;;;;;;12.36;100.00;99055.94;4478296;32;34381;-80
2022/11/04 11:44:55;;;;;;;;;;;;;;;12.05;100.00;99051.69;4480179;32;34712;-80
2022/11/04 11:47:56;;;;;;;;;;;;;;;12.09;100.00;99041.63;4451443;31;36194;-80
2022/11/04 11:51:03;;;;;;;;;;;;;;;12.35;100.00;99048.84;4411887;32;34889;-77
2022/11/04 11:54:24;;;;;;;;;;;;;;;11.74;100.00;99034.75;4370540;32;33112;-77
2022/11/04 11:57:34;;;;;;;;;;;;;;;12.32;100.00;99028.34;4338439;32;35842;-77
2022/11/04 12:00:42;;;;;;;;;;;;;;;12.19;100.00;99017.66;4310519;33;35660;-77
2022/11/04 12:03:53;;;;;;;;;;;;;;;11.72;100.00;99010.37;4263075;33;34399;-77
2022/11/04 12:07:21;;;;;;;;;;;;;;;12.13;100.00;99003.31;4273715;33;34727;-77
2022/11/04 12:10:38;;;;;;;;;;;;;;;11.68;100.00;98999.28;4364461;32;35243;-77
2022/11/04 12:13:49;;;;;;;;;;;;;;;11.85;100.00;98987.41;4495173;31;35219;-77
2022/11/04 12:16:56;;;;;;;;;;;;;;;11.75;100.00;98984.22;4493574;31;34041;-78
2022/11/04 12:19:48;;;;;;;;;;;;;;;12.13;100.00;98979.41;4492523;31;34746;-78
2022/11/04 12:23:07;;;;;;;;;;;;;;;12.24;100.00;98970.72;4511019;31;34884;-76
2022/11/04 12:26:31;;;;;;;;;;;;;;;12.20;100.00;98956.09;4445960;32;33570;-79
2022/11/04 12:29:40;;;;;;;;;;;;;;;12.41;100.00;98947.78;4400191;32;35054;-79
2022/11/04 12:32:34;;;;;;;;;;;;;;;12.02;100.00;98941.72;4418840;31;33808;-81
2022/11/04 12:35:25;;;;;;;;;;;;;;;11.97;100.00;98931.75;4482013;31;33884;-80
2022/11/04 12:38:19;;;;;;;;;;;;;;;11.73;100.00;98939.84;4497276;31;34807;-79
2022/11/04 12:41:13;;;;;;;;;;;;;;;11.89;100.00;98924.38;4498076;31;35575;-80
2022/11/04 12:44:19;;;;;;;;;;;;;;;12.24;100.00;98926.78;4500244;31;33570;-81
2022/11/04 12:47:15;;;;;;;;;;;;;;;11.68;100.00;98925.19;4495345;31;35559;-80
2022/11/04 12:50:33;;;;;;;;;;;;;;;12.11;100.00;98926.75;4495021;31;34498;-80
2022/11/04 12:53:31;;;;;;;;;;;;;;;12.24;100.00;98924.03;4494588;31;34260;-80
2022/11/04 12:59:25;;;;;;;;;;;;;;;11.96;100.00;98910.13;4477098;31;34942;-80
2022/11/04 13:02:21;;;;;;;;;;;;;;;12.40;100.00;98910.47;4485734;31;34655;-80
2022/11/04 13:05:20;;;;;;;;;;;;;;;12.57;100.00;98910.25;4484286;31;35045;-78
2022/11/04 13:08:09;;;;;;;;;;;;;;;12.36;100.00;98902.13;4496669;31;32360;-80
2022/11/04 13:11:21;;;;;;;;;;;;;;;12.19;100.00;98900.34;4497800;31;34336;-78
2022/11/04 13:14:15;;;;;;;;;;;;;;;12.42;100.00;98903.50;4498175;31;34961;-79
2022/11/04 13:17:04;;;;;;;;;;;;;;;12.92;100.00;98907.06;4497783;31;34775;-79
2022/11/04 13:19:53;;;;;;;;;;;;;;;12.79;100.00;98893.31;4494331;31;33636;-78
2022/11/04 13:22:51;;;;;;;;;;;;;;;12.80;100.00;98891.38;4484416;31;34561;-81
2022/11/04 13:25:43;;;;;;;;;;;;;;;12.54;100.00;98889.75;4485475;31;34610;-80
2022/11/04 13:28:31;;;;;;;;;;;;;;;12.38;100.00;98883.34;4495603;31;35746;-80
2022/11/04 13:31:49;;;;;;;;;;;;;;;12.47;100.00;98880.50;4497667;31;34048;-81
2022/11/04 13:34:42;;;;;;;;;;;;;;;12.51;100.00;98892.41;4482158;31;34623;-80
2022/11/04 13:37:38;;;;;;;;;;;;;;;12.58;100.00;98896.19;4484756;31;35217;-80
2022/11/04 13:40:31;;;;;;;;;;;;;;;12.40;100.00;98885.75;4484978;31;34025;-81
2022/11/04 13:43:37;;;;;;;;;;;;;;;11.88;100.00;98878.88;4497527;31;33462;-79
2022/11/04 13:46:31;;;;;;;;;;;;;;;12.17;100.00;98879.87;4489378;31;34289;-79
2022/11/04 13:49:29;;;;;;;;;;;;;;;12.45;100.00;98894.56;4483035;31;34582;-79
2022/11/04 13:52:17;;;;;;;;;;;;;;;12.33;100.00;98900.06;4487719;31;34191;-78
2022/11/04 13:55:20;;;;;;;;;;;;;;;11.95;100.00;98881.84;4487312;31;33433;-77
2022/11/04 13:58:15;;;;;;;;;;;;;;;12.25;100.00;98887.22;4487526;31;34375;-79
2022/11/04 14:01:23;;;;;;;;;;;;;;;11.89;100.00;98883.22;4485675;31;34967;-77
2022/11/04 14:04:14;;;;;;;;;;;;;;;12.78;100.00;98885.44;4485679;31;37093;-77
2022/11/04 14:07:02;;;;;;;;;;;;;;;12.35;100.00;98881.25;4496266;31;33402;-80
2022/11/04 14:10:03;;;;;;;;;;;;;;;12.66;100.00;98871.69;4474393;31;34876;-81
2022/11/04 14:12:50;;;;;;;;;;;;;;;12.85;100.00;98874.66;4496627;31;35159;-80
2022/11/04 14:16:00;;;;;;;;;;;;;;;13.01;100.00;98869.28;4495577;31;34579;-80
2022/11/04 14:18:47;;;;;;;;;;;;;;;12.45;100.00;98869.84;4490226;31;33521;-80
2022/11/04 14:21:55;;;;;;;;;;;;;;;12.84;100.00;98856.56;4476078;31;34418;-80
2022/11/04 14:24:59;;;;;;;;;;;;;;;12.81;100.00;98847.06;4493682;31;34949;-80
2022/11/04 14:27:49;;;;;;;;;;;;;;;12.69;100.00;98835.25;4483942;31;34655;-80
2022/11/04 14:30:44;;;;;;;;;;;;;;;12.60;100.00;98847.16;4481079;31;33701;-79
2022/11/04 14:33:53;;;;;;;;;;;;;;;12.55;100.00;98858.41;4494020;31;33707;-78
2022/11/04 14:36:43;;;;;;;;;;;;;;;12.35;100.00;98864.78;4485096;31;33690;-80
2022/11/04 14:39:41;;;;;;;;;;;;;;;12.49;100.00;98862.50;4491604;31;34333;-80
2022/11/04 14:42:48;;;;;;;;;;;;;;;12.14;100.00;98857.44;4482767;31;32306;-80
2022/11/04 14:45:39;;;;;;;;;;;;;;;12.35;100.00;98851.03;4498822;31;35695;-80
2022/11/04 14:48:32;;;;;;;;;;;;;;;12.75;100.00;98836.63;4487479;31;34878;-80
2022/11/04 14:51:38;;;;;;;;;;;;;;;12.72;100.00;98837.31;4498875;31;35620;-80
2022/11/04 14:54:29;;;;;;;;;;;;;;;12.53;100.00;98841.44;4497647;31;34631;-79
2022/11/04 14:57:22;;;;;;;;;;;;;;;12.72;100.00;98838.12;4496097;31;35614;-80
2022/11/04 15:00:28;;;;;;;;;;;;;;;11.87;100.00;98841.59;4485862;31;35249;-80
2022/11/04 15:03:28;;;;;;;;;;;;;;;12.47;100.00;98842.03;4508668;31;34798;-80
2022/11/04 15:06:36;;;;;;;;;;;;;;;12.82;100.00;98845.09;4509376;31;33419;-80
2022/11/04 15:09:46;;;;;;;;;;;;;;;12.13;100.00;98839.34;4495155;31;35602;-80
2022/11/04 15:12:50;;;;;;;;;;;;;;;12.83;100.00;98832.94;4498388;31;34803;-80
2022/11/04 15:15:49;;;;;;;;;;;;;;;12.86;100.00;98831.47;4487512;31;34765;-80
2022/11/04 15:24:40;;;;;;;;;;;;;;;12.68;100.00;98822.66;4496387;31;37024;-81
2022/11/04 15:27:28;;;;;;;;;;;;;;;12.74;100.00;98818.53;4506443;31;33655;-89
2022/11/04 15:30:17;;;;;;;;;;;;;;;12.72;100.00;98820.81;4507051;31;34255;-86